Time;durP1;ratioP1;P1;durP2;ratioP2;P2;SDS_P1;SDS_P2;PMS_P1;PMS_P2;Temp;Humidity;BMP_temperature;BMP_pressure;BME280_temperature;BME280_humidity;BME280_pressure;Samples;Min_cycle;Max_cycle;Signal;HPM_P1;HPM_P2
2023/08/25 00:02:25;;;;;;;58.28;41.45;;;18.20;99.90;;;;;;6124069;23;20447;-85
2023/08/25 00:04:50;;;;;;;40.80;37.03;;;18.10;99.90;;;;;;6124139;23;20407;-85
2023/08/25 00:07:16;;;;;;;30.80;28.25;;;18.10;99.90;;;;;;6098767;23;20014;-86
2023/08/25 00:09:44;;;;;;;38.83;35.25;;;18.10;99.90;;;;;;6099164;23;20014;-85
2023/08/25 00:12:11;;;;;;;28.92;26.70;;;18.00;99.90;;;;;;6099927;23;20018;-85
2023/08/25 00:14:36;;;;;;;37.10;33.88;;;18.00;99.90;;;;;;6124036;23;20018;-86
2023/08/25 00:17:03;;;;;;;30.50;28.10;;;18.00;99.90;;;;;;6123966;23;20462;-86
2023/08/25 00:19:29;;;;;;;35.10;32.20;;;18.00;99.90;;;;;;6098972;23;20065;-86
2023/08/25 00:21:55;;;;;;;36.55;33.45;;;18.00;99.90;;;;;;6099481;23;20013;-85
2023/08/25 00:24:20;;;;;;;33.28;30.63;;;17.90;99.90;;;;;;6124117;23;20037;-86
2023/08/25 00:26:46;;;;;;;39.50;35.70;;;17.90;99.90;;;;;;6099722;23;20017;-86
2023/08/25 00:29:12;;;;;;;37.97;34.67;;;17.90;99.90;;;;;;6098942;23;20006;-86
2023/08/25 00:31:38;;;;;;;52.22;46.67;;;17.90;99.90;;;;;;6099077;23;20013;-86
2023/08/25 00:34:04;;;;;;;37.13;34.03;;;17.80;99.90;;;;;;6099452;23;20014;-86
2023/08/25 00:36:30;;;;;;;46.58;41.58;;;17.90;99.90;;;;;;6124191;23;20017;-86
2023/08/25 00:38:56;;;;;;;48.90;43.25;;;17.90;99.90;;;;;;6099103;23;20433;-85
2023/08/25 00:41:22;;;;;;;52.92;45.60;;;17.90;99.90;;;;;;6099543;23;20062;-86
2023/08/25 00:43:48;;;;;;;53.42;48.08;;;17.90;99.90;;;;;;6098460;23;20013;-86
2023/08/25 00:46:15;;;;;;;53.95;48.95;;;17.90;99.90;;;;;;6099341;23;20108;-86
2023/08/25 00:48:41;;;;;;;43.75;40.20;;;18.00;99.90;;;;;;6099082;23;20029;-85
2023/08/25 00:51:09;;;;;;;50.45;45.80;;;18.00;99.90;;;;;;6099260;23;20010;-86
2023/08/25 00:53:35;;;;;;;52.10;47.20;;;18.10;99.90;;;;;;6099347;23;20097;-86
2023/08/25 00:56:02;;;;;;;59.05;53.08;;;18.10;99.90;;;;;;6098764;23;20014;-86
2023/08/25 00:58:28;;;;;;;78.50;61.65;;;18.20;99.90;;;;;;6123432;23;20014;-86
2023/08/25 01:00:54;;;;;;;56.53;50.58;;;18.20;99.90;;;;;;6098830;23;20021;-86
2023/08/25 01:03:21;;;;;;;58.97;53.15;;;18.30;99.90;;;;;;6099230;23;20097;-86
2023/08/25 01:05:48;;;;;;;62.30;55.10;;;18.40;99.90;;;;;;6098879;23;20034;-86
2023/08/25 01:08:16;;;;;;;53.75;48.75;;;18.40;99.90;;;;;;6098978;23;20010;-86
2023/08/25 01:11:04;;;;;;;54.03;49.10;;;18.50;99.90;;;;;;6098837;23;20014;-86
2023/08/25 01:14:00;;;;;;;51.78;46.63;;;18.50;99.90;;;;;;6098130;23;20489;-86
2023/08/25 01:16:54;;;;;;;51.30;46.75;;;18.50;99.90;;;;;;6098544;23;20014;-86
2023/08/25 01:19:52;;;;;;;61.90;55.00;;;18.50;99.90;;;;;;6121926;23;20014;-86
2023/08/25 01:22:35;;;;;;;70.20;58.33;;;18.60;99.90;;;;;;6123392;23;20089;-86
2023/08/25 01:25:27;;;;;;;66.68;59.58;;;18.60;99.90;;;;;;6099080;23;20018;-85
2023/08/25 01:27:55;;;;;;;61.40;54.83;;;18.70;99.90;;;;;;6098470;23;20017;-87
2023/08/25 01:30:26;;;;;;;66.10;56.95;;;18.70;99.90;;;;;;6099011;23;20354;-85
2023/08/25 01:32:52;;;;;;;49.33;45.22;;;18.70;99.90;;;;;;6098657;23;20466;-86
2023/08/25 01:35:21;;;;;;;51.25;46.75;;;18.70;99.90;;;;;;6099182;23;20037;-86
2023/08/25 01:38:06;;;;;;;50.13;45.72;;;18.70;99.90;;;;;;6122997;23;20010;-86
2023/08/25 01:40:43;;;;;;;73.15;59.70;;;18.70;99.90;;;;;;6098904;23;20021;-86
2023/08/25 01:43:11;;;;;;;61.03;54.60;;;18.70;99.90;;;;;;6123593;23;20006;-86
2023/08/25 01:45:37;;;;;;;52.35;47.65;;;18.70;99.90;;;;;;6099339;23;20014;-86
2023/08/25 01:48:07;;;;;;;54.80;49.75;;;18.80;99.90;;;;;;6098238;23;20010;-86
2023/08/25 01:50:38;;;;;;;59.72;53.67;;;18.80;99.90;;;;;;6098251;23;20049;-87
2023/08/25 01:53:03;;;;;;;50.80;46.30;;;18.80;99.90;;;;;;6099050;23;20021;-86
2023/08/25 01:55:29;;;;;;;58.25;52.60;;;18.80;99.90;;;;;;6098846;23;20014;-86
2023/08/25 01:57:55;;;;;;;54.17;49.05;;;18.80;99.90;;;;;;6124060;23;20057;-86
2023/08/25 02:00:21;;;;;;;54.20;49.03;;;18.80;99.90;;;;;;6100030;23;20320;-87
2023/08/25 02:02:47;;;;;;;80.75;59.95;;;18.80;99.90;;;;;;6099432;23;20014;-86
2023/08/25 02:05:12;;;;;;;56.33;51.03;;;18.70;99.90;;;;;;6098934;23;20021;-86
2023/08/25 02:07:38;;;;;;;55.60;50.60;;;18.80;99.90;;;;;;6098471;23;20018;-85
2023/08/25 02:10:04;;;;;;;58.95;53.20;;;18.80;99.90;;;;;;6098578;23;20088;-86
2023/08/25 02:12:30;;;;;;;56.17;50.38;;;18.80;99.90;;;;;;6098838;23;20489;-86
2023/08/25 02:14:55;;;;;;;50.75;46.38;;;18.70;99.90;;;;;;6098678;23;20018;-87
2023/08/25 02:17:21;;;;;;;63.33;56.47;;;18.70;99.90;;;;;;6099367;23;20014;-86
2023/08/25 02:19:46;;;;;;;53.38;47.97;;;18.70;99.90;;;;;;6098810;23;20021;-86
2023/08/25 02:22:12;;;;;;;62.22;55.75;;;18.70;99.90;;;;;;6098625;23;20010;-86
2023/08/25 02:24:38;;;;;;;52.00;47.00;;;18.60;99.90;;;;;;6100156;23;20012;-86
2023/08/25 02:27:04;;;;;;;52.58;47.80;;;18.60;99.90;;;;;;6100268;23;20072;-84
2023/08/25 02:29:30;;;;;;;56.75;51.47;;;18.50;99.90;;;;;;6100335;23;20615;-85
2023/08/25 02:31:55;;;;;;;92.53;67.90;;;18.50;99.90;;;;;;6100946;23;20089;-86
2023/08/25 02:34:22;;;;;;;83.05;62.83;;;18.50;99.90;;;;;;6125144;23;20020;-85
2023/08/25 02:36:47;;;;;;;82.30;60.92;;;18.40;99.90;;;;;;6124865;23;20014;-85
2023/08/25 02:39:13;;;;;;;58.25;52.35;;;18.40;99.90;;;;;;6100422;23;20149;-86
2023/08/25 02:41:39;;;;;;;55.17;50.10;;;18.40;99.90;;;;;;6099945;23;20514;-85
2023/08/25 02:44:04;;;;;;;58.72;52.88;;;18.40;99.90;;;;;;6124907;23;20019;-86
2023/08/25 02:46:30;;;;;;;67.00;60.40;;;18.20;99.90;;;;;;6100733;23;20024;-86
2023/08/25 02:48:56;;;;;;;65.43;58.60;;;18.20;99.90;;;;;;6123633;23;20276;-86
2023/08/25 02:51:21;;;;;;;72.35;60.35;;;18.20;99.90;;;;;;6100287;23;20115;-85
2023/08/25 02:53:47;;;;;;;78.18;68.97;;;18.20;99.90;;;;;;6100630;23;20006;-86
2023/08/25 02:56:12;;;;;;;65.63;58.83;;;18.10;99.90;;;;;;6100843;23;20021;-86
2023/08/25 02:58:38;;;;;;;59.72;53.95;;;18.10;99.90;;;;;;6100695;23;20016;-86
2023/08/25 03:01:13;;;;;;;80.68;65.45;;;18.10;99.90;;;;;;6100931;23;20006;-85
2023/08/25 03:03:39;;;;;;;66.65;59.72;;;18.10;99.90;;;;;;6124574;23;20010;-85
2023/08/25 03:06:05;;;;;;;59.70;54.15;;;18.00;99.90;;;;;;6100204;23;20056;-86
2023/08/25 03:08:31;;;;;;;69.65;60.53;;;18.00;99.90;;;;;;6100464;23;20021;-87
2023/08/25 03:10:56;;;;;;;83.95;68.13;;;17.90;99.90;;;;;;6125125;23;20018;-86
2023/08/25 03:13:22;;;;;;;90.90;72.72;;;17.90;99.90;;;;;;6100802;23;20316;-85
2023/08/25 03:15:52;;;;;;;105.55;79.13;;;17.90;99.90;;;;;;6100112;23;20010;-86
2023/08/25 03:18:17;;;;;;;91.95;75.00;;;17.90;99.90;;;;;;6099681;23;20021;-86
2023/08/25 03:20:43;;;;;;;85.13;73.05;;;17.80;99.90;;;;;;6100462;23;20010;-86
2023/08/25 03:23:09;;;;;;;94.85;76.18;;;17.70;99.90;;;;;;6100593;23;20049;-85
2023/08/25 03:25:38;;;;;;;192.20;85.45;;;17.80;99.90;;;;;;6100562;23;20014;-86
2023/08/25 03:28:04;;;;;;;174.60;87.80;;;17.70;99.90;;;;;;6100611;23;20025;-86
2023/08/25 03:30:29;;;;;;;104.35;73.82;;;17.70;99.90;;;;;;6099142;23;20014;-86
2023/08/25 03:32:55;;;;;;;87.30;70.07;;;17.70;99.90;;;;;;6124397;23;20013;-85
2023/08/25 03:35:21;;;;;;;76.45;66.50;;;17.60;99.90;;;;;;6123953;23;20060;-85
2023/08/25 03:37:46;;;;;;;120.28;80.65;;;17.70;99.90;;;;;;6099462;23;20020;-86
2023/08/25 03:40:12;;;;;;;81.15;65.20;;;17.60;99.90;;;;;;6123633;23;20199;-86
2023/08/25 03:42:38;;;;;;;97.28;71.32;;;17.60;99.90;;;;;;6099680;23;20014;-86
2023/08/25 03:45:05;;;;;;;73.07;59.35;;;17.60;99.90;;;;;;6099775;23;20010;-85
2023/08/25 03:47:31;;;;;;;102.00;71.70;;;17.50;99.90;;;;;;6124417;23;20010;-85
2023/08/25 03:49:57;;;;;;;62.28;55.90;;;17.50;99.90;;;;;;6099332;23;20073;-86
2023/08/25 03:52:23;;;;;;;112.53;75.63;;;17.50;99.90;;;;;;6124138;23;20069;-85
2023/08/25 03:54:48;;;;;;;66.40;57.80;;;17.40;99.90;;;;;;6099627;23;20021;-85
2023/08/25 03:57:14;;;;;;;84.75;62.50;;;17.40;99.90;;;;;;6099588;23;20010;-86
2023/08/25 03:59:40;;;;;;;63.75;55.58;;;17.30;99.90;;;;;;6100060;23;20454;-86
2023/08/25 04:02:05;;;;;;;68.55;59.92;;;17.30;99.90;;;;;;6099626;23;20017;-86
2023/08/25 04:04:32;;;;;;;55.45;49.83;;;17.20;99.90;;;;;;6099666;23;20016;-86
2023/08/25 04:06:58;;;;;;;169.32;81.05;;;17.20;99.90;;;;;;6099487;23;20042;-86
2023/08/25 04:09:23;;;;;;;121.20;68.28;;;17.10;99.90;;;;;;6100257;23;20014;-85
2023/08/25 04:11:49;;;;;;;189.30;80.35;;;17.00;99.90;;;;;;6101529;23;20017;-86
2023/08/25 04:14:14;;;;;;;52.33;47.25;;;17.00;99.90;;;;;;6101622;23;20009;-86
2023/08/25 04:16:40;;;;;;;71.63;57.08;;;16.90;99.90;;;;;;6100438;23;20101;-86
2023/08/25 04:19:06;;;;;;;88.72;65.68;;;16.80;99.90;;;;;;6099189;23;20065;-86
2023/08/25 04:21:31;;;;;;;138.95;75.07;;;16.90;99.90;;;;;;6099080;23;20009;-86
2023/08/25 04:23:57;;;;;;;182.52;91.20;;;16.90;99.90;;;;;;6099526;23;20014;-86
2023/08/25 04:26:22;;;;;;;198.60;91.50;;;16.90;99.90;;;;;;6099769;23;20092;-86
2023/08/25 04:28:48;;;;;;;178.88;83.53;;;16.90;99.90;;;;;;6123909;23;20010;-86
2023/08/25 04:31:14;;;;;;;90.45;69.07;;;16.90;99.90;;;;;;6123107;23;20025;-87
2023/08/25 04:33:39;;;;;;;70.25;62.05;;;16.90;99.90;;;;;;6099374;23;20094;-86
2023/08/25 04:36:05;;;;;;;94.88;73.05;;;17.00;99.90;;;;;;6099616;23;20013;-86
2023/08/25 04:38:30;;;;;;;86.57;72.75;;;16.90;99.90;;;;;;6123933;23;20025;-86
2023/08/25 04:40:56;;;;;;;74.13;63.55;;;16.90;99.90;;;;;;6099518;23;20465;-85
2023/08/25 04:43:22;;;;;;;84.65;67.35;;;16.90;99.90;;;;;;6123694;23;20013;-87
2023/08/25 04:45:47;;;;;;;254.02;92.43;;;16.90;99.90;;;;;;6099345;23;20332;-86
2023/08/25 04:48:13;;;;;;;255.30;88.00;;;16.90;99.90;;;;;;6099309;23;20018;-86
2023/08/25 04:50:38;;;;;;;202.35;84.72;;;16.90;99.90;;;;;;6099350;23;20014;-85
2023/08/25 04:53:04;;;;;;;261.10;93.18;;;16.90;99.90;;;;;;6098892;23;20354;-86
2023/08/25 04:55:30;;;;;;;78.20;67.75;;;16.90;99.90;;;;;;6123391;23;20053;-86
2023/08/25 04:57:55;;;;;;;113.47;72.78;;;16.90;99.90;;;;;;6123785;23;20014;-86
2023/08/25 05:00:21;;;;;;;171.57;79.70;;;16.90;99.90;;;;;;6123533;23;20407;-86
2023/08/25 05:02:49;;;;;;;219.85;99.05;;;16.90;99.90;;;;;;6122951;23;20077;-86
2023/08/25 05:05:17;;;;;;;169.38;95.50;;;16.90;99.90;;;;;;6122956;23;20009;-86
2023/08/25 05:07:43;;;;;;;142.73;84.78;;;16.90;99.90;;;;;;6123045;23;20104;-86
2023/08/25 05:10:09;;;;;;;199.98;90.75;;;16.90;99.90;;;;;;6123718;23;20443;-86
2023/08/25 05:12:35;;;;;;;119.93;78.15;;;17.00;99.90;;;;;;6099268;23;20021;-86
2023/08/25 05:15:02;;;;;;;340.33;111.40;;;17.00;99.90;;;;;;6122653;23;20024;-86
2023/08/25 05:17:27;;;;;;;349.45;112.10;;;17.00;99.90;;;;;;6098543;23;20010;-86
2023/08/25 05:19:53;;;;;;;142.90;91.60;;;17.10;99.90;;;;;;6098435;23;20342;-86
2023/08/25 05:22:19;;;;;;;201.07;103.32;;;17.20;99.90;;;;;;6099231;23;20343;-86
2023/08/25 05:24:45;;;;;;;234.93;104.45;;;17.30;99.90;;;;;;6123289;23;20093;-85
2023/08/25 05:27:11;;;;;;;162.55;96.85;;;17.30;99.90;;;;;;6099020;23;20025;-85
2023/08/25 05:29:37;;;;;;;238.05;99.18;;;17.40;99.90;;;;;;6123304;23;20010;-85
2023/08/25 05:32:03;;;;;;;205.00;96.13;;;17.40;99.90;;;;;;6122906;23;20017;-85
2023/08/25 05:34:28;;;;;;;173.40;99.07;;;17.50;99.90;;;;;;6098612;23;20043;-85
2023/08/25 05:36:54;;;;;;;370.88;119.18;;;17.50;99.90;;;;;;6098158;23;20012;-85
2023/08/25 05:39:21;;;;;;;141.27;93.32;;;17.60;99.90;;;;;;6123155;23;20514;-85
2023/08/25 05:41:47;;;;;;;119.38;87.05;;;17.70;99.90;;;;;;6098912;23;20010;-85
2023/08/25 05:44:13;;;;;;;300.23;106.47;;;17.80;99.90;;;;;;6122457;23;20014;-86
2023/08/25 05:46:40;;;;;;;177.32;96.57;;;17.80;99.90;;;;;;6098945;23;20025;-85
2023/08/25 05:49:06;;;;;;;348.42;115.85;;;17.90;99.90;;;;;;6098438;23;20093;-86
2023/08/25 05:51:31;;;;;;;121.15;89.35;;;18.00;99.90;;;;;;6099018;23;20021;-86
2023/08/25 05:53:57;;;;;;;207.43;106.43;;;18.00;99.90;;;;;;6097864;23;20018;-85
2023/08/25 05:56:22;;;;;;;267.55;112.50;;;18.10;99.90;;;;;;6096920;23;20054;-84
2023/08/25 05:58:48;;;;;;;148.80;94.18;;;18.20;99.90;;;;;;6100294;23;20113;-82
2023/08/25 06:01:15;;;;;;;345.45;121.45;;;18.20;99.90;;;;;;6126944;23;20454;-84
2023/08/25 06:03:40;;;;;;;225.43;105.75;;;18.30;99.90;;;;;;6127857;23;20060;-85
2023/08/25 06:06:06;;;;;;;98.43;79.93;;;18.30;99.90;;;;;;6122018;23;20447;-83
2023/08/25 06:08:32;;;;;;;141.73;92.00;;;18.40;99.90;;;;;;6098510;23;20498;-83
2023/08/25 06:10:58;;;;;;;117.35;88.25;;;18.40;99.90;;;;;;6123719;23;20017;-84
2023/08/25 06:13:24;;;;;;;173.05;97.32;;;18.50;99.90;;;;;;6123141;23;20514;-83
2023/08/25 06:15:49;;;;;;;154.65;94.47;;;18.60;99.90;;;;;;6099546;23;20014;-86
2023/08/25 06:18:16;;;;;;;130.30;90.85;;;18.50;99.90;;;;;;6122069;23;20010;-83
2023/08/25 06:20:42;;;;;;;133.98;89.18;;;18.60;99.90;;;;;;6101359;23;20006;-84
2023/08/25 06:23:08;;;;;;;115.55;85.15;;;18.70;99.90;;;;;;6122700;23;20100;-83
2023/08/25 06:25:34;;;;;;;101.35;80.75;;;18.70;99.90;;;;;;6122852;23;20013;-84
2023/08/25 06:28:00;;;;;;;96.82;78.57;;;18.70;99.90;;;;;;6099542;23;20328;-83
2023/08/25 06:30:29;;;;;;;138.70;90.63;;;18.80;99.90;;;;;;6098633;23;20471;-83
2023/08/25 06:32:55;;;;;;;102.90;77.95;;;18.80;99.90;;;;;;6098595;23;20383;-83
2023/08/25 06:35:21;;;;;;;117.05;83.38;;;18.80;99.90;;;;;;6122815;23;20097;-85
2023/08/25 06:37:46;;;;;;;174.45;90.60;;;18.80;99.90;;;;;;6098382;23;20443;-85
2023/08/25 06:40:12;;;;;;;116.35;78.28;;;18.80;99.90;;;;;;6122976;23;20010;-86
2023/08/25 06:42:38;;;;;;;123.80;83.15;;;18.80;99.90;;;;;;6122491;23;20010;-86
2023/08/25 06:45:11;;;;;;;114.53;80.03;;;18.80;99.90;;;;;;6097949;23;20096;-85
2023/08/25 06:47:37;;;;;;;117.65;80.38;;;18.70;99.90;;;;;;6098505;23;20173;-86
2023/08/25 06:50:05;;;;;;;100.22;77.53;;;18.80;99.90;;;;;;6098870;23;20108;-86
2023/08/25 06:52:31;;;;;;;104.95;79.57;;;18.80;99.90;;;;;;6098650;23;20100;-87
2023/08/25 06:54:57;;;;;;;129.68;82.85;;;18.80;99.90;;;;;;6097640;23;20044;-85
2023/08/25 06:57:23;;;;;;;104.45;79.55;;;18.90;99.90;;;;;;6098169;23;20014;-86
2023/08/25 06:59:49;;;;;;;99.07;78.55;;;18.90;99.90;;;;;;6098245;23;20451;-86
2023/08/25 07:02:15;;;;;;;179.60;88.78;;;19.00;99.90;;;;;;6122736;23;20013;-85
2023/08/25 07:04:41;;;;;;;91.88;76.03;;;19.10;99.90;;;;;;6098554;23;20046;-85
2023/08/25 07:07:06;;;;;;;92.28;77.38;;;19.20;99.90;;;;;;6097729;23;20046;-85
2023/08/25 07:09:32;;;;;;;88.22;72.97;;;19.20;99.90;;;;;;6123360;23;20006;-86
2023/08/25 07:11:58;;;;;;;88.32;74.68;;;19.30;99.90;;;;;;6124799;23;20077;-86
2023/08/25 07:14:23;;;;;;;96.85;79.70;;;19.40;99.90;;;;;;6124317;23;20061;-87
2023/08/25 07:16:49;;;;;;;103.10;81.45;;;19.50;99.90;;;;;;6100660;23;20049;-87
2023/08/25 07:19:16;;;;;;;87.88;76.93;;;19.60;99.90;;;;;;6100479;23;20312;-87
2023/08/25 07:21:42;;;;;;;82.25;73.43;;;19.70;99.90;;;;;;6100215;23;20017;-87
2023/08/25 07:24:08;;;;;;;93.60;76.97;;;19.90;99.90;;;;;;6100942;23;20010;-88
2023/08/25 07:26:34;;;;;;;108.97;74.90;;;20.10;99.90;;;;;;6125255;23;20052;-88
2023/08/25 07:28:59;;;;;;;81.50;70.20;;;20.20;99.90;;;;;;6100728;23;20037;-88
2023/08/25 07:31:25;;;;;;;89.72;70.53;;;20.20;99.90;;;;;;6100299;23;20057;-87
2023/08/25 07:33:51;;;;;;;120.28;76.88;;;20.30;99.90;;;;;;6100566;23;20053;-88
2023/08/25 07:36:19;;;;;;;72.43;64.50;;;20.30;99.90;;;;;;6124603;23;20184;-88
2023/08/25 07:38:44;;;;;;;75.30;67.15;;;20.30;99.90;;;;;;6124062;23;20065;-87
2023/08/25 07:41:11;;;;;;;59.80;54.13;;;20.40;99.90;;;;;;6123228;23;20014;-87
2023/08/25 07:43:37;;;;;;;65.22;58.47;;;20.60;99.90;;;;;;6124091;23;20010;-88
2023/08/25 07:46:03;;;;;;;64.18;57.63;;;20.80;99.90;;;;;;6098971;23;20021;-88
2023/08/25 07:49:02;;;;;;;60.20;54.33;;;20.90;99.90;;;;;;6123060;23;20018;-90
2023/08/25 07:51:31;;;;;;;48.83;44.35;;;21.10;99.90;;;;;;6088492;23;20014;-87
2023/08/25 07:53:57;;;;;;;44.17;40.10;;;21.20;99.90;;;;;;6124126;23;20014;-90
2023/08/25 07:56:23;;;;;;;46.72;42.45;;;21.40;99.90;;;;;;6100761;23;20028;-90
2023/08/25 07:58:49;;;;;;;47.10;42.70;;;21.40;99.90;;;;;;6100081;23;20392;-85
2023/08/25 08:01:14;;;;;;;44.78;40.85;;;21.60;99.90;;;;;;6099299;23;20040;-87
2023/08/25 08:03:40;;;;;;;41.05;37.25;;;21.80;99.90;;;;;;6102294;23;20018;-87
2023/08/25 08:06:05;;;;;;;36.95;33.78;;;21.90;99.90;;;;;;6103573;23;20455;-88
2023/08/25 08:08:31;;;;;;;35.50;32.40;;;22.10;99.90;;;;;;6128739;23;20029;-87
2023/08/25 08:10:57;;;;;;;31.30;28.40;;;22.10;99.90;;;;;;6102624;23;20014;-88
2023/08/25 08:13:22;;;;;;;32.90;30.05;;;22.00;99.90;;;;;;6102324;23;20467;-88
2023/08/25 08:15:48;;;;;;;30.05;27.25;;;22.00;99.90;;;;;;6105065;23;20018;-88
2023/08/25 08:18:14;;;;;;;32.13;29.38;;;22.00;99.90;;;;;;6104341;23;20033;-88
2023/08/25 08:20:40;;;;;;;31.25;28.38;;;21.90;99.90;;;;;;6104330;23;20091;-88
2023/08/25 08:23:05;;;;;;;34.40;31.15;;;21.80;99.90;;;;;;6103564;23;20010;-87
2023/08/25 08:25:32;;;;;;;31.95;29.13;;;21.80;99.90;;;;;;6128477;23;20077;-88
2023/08/25 08:27:58;;;;;;;28.92;26.33;;;21.70;99.90;;;;;;6103219;23;20045;-87
2023/08/25 08:30:23;;;;;;;32.88;30.00;;;21.60;99.90;;;;;;6104740;23;20024;-87
2023/08/25 08:32:49;;;;;;;30.90;28.08;;;21.60;99.90;;;;;;6101269;23;20451;-87
2023/08/25 08:35:15;;;;;;;31.65;28.95;;;21.50;99.90;;;;;;6099493;23;20065;-87
2023/08/25 08:37:41;;;;;;;33.55;30.45;;;21.50;99.90;;;;;;6099212;23;20017;-87
2023/08/25 08:40:10;;;;;;;34.28;31.23;;;21.50;99.90;;;;;;6100513;23;20017;-87
2023/08/25 08:42:37;;;;;;;34.97;31.77;;;21.50;99.90;;;;;;6124615;23;20010;-87
2023/08/25 08:45:07;;;;;;;36.50;33.17;;;21.60;99.90;;;;;;6100021;23;20013;-87
2023/08/25 08:47:34;;;;;;;31.70;28.90;;;21.60;99.90;;;;;;6123719;23;20088;-87
2023/08/25 08:50:01;;;;;;;32.88;30.08;;;21.60;99.90;;;;;;6099478;23;20022;-87
2023/08/25 08:52:30;;;;;;;32.08;29.25;;;21.60;99.90;;;;;;6123735;23;20064;-87
2023/08/25 08:54:59;;;;;;;33.22;30.27;;;21.60;99.90;;;;;;6123467;23;20014;-87
2023/08/25 08:57:26;;;;;;;32.70;29.85;;;21.60;99.90;;;;;;6123458;23;20010;-87
2023/08/25 08:59:52;;;;;;;34.33;31.20;;;21.60;99.90;;;;;;6099342;23;20080;-87
2023/08/25 09:02:20;;;;;;;32.83;29.90;;;21.60;99.90;;;;;;6099096;23;20447;-87
2023/08/25 09:04:49;;;;;;;29.25;26.58;;;21.60;99.90;;;;;;6099286;23;20049;-87
2023/08/25 09:07:17;;;;;;;32.45;29.55;;;21.60;99.90;;;;;;6123507;23;20006;-87
2023/08/25 09:09:45;;;;;;;32.58;29.45;;;21.60;99.90;;;;;;6123441;23;20018;-86
2023/08/25 09:12:13;;;;;;;32.58;29.63;;;21.50;99.90;;;;;;6123503;23;20013;-87
2023/08/25 09:14:38;;;;;;;34.45;31.35;;;21.50;99.90;;;;;;6123570;23;20010;-87
2023/08/25 09:17:06;;;;;;;34.47;31.50;;;21.40;99.90;;;;;;6099033;23;20513;-87
2023/08/25 09:19:33;;;;;;;35.78;32.78;;;21.40;99.90;;;;;;6122997;23;20006;-86
2023/08/25 09:21:59;;;;;;;41.72;37.83;;;21.30;99.90;;;;;;6098787;23;20010;-86
2023/08/25 09:24:25;;;;;;;43.40;39.50;;;21.30;99.90;;;;;;6099063;23;20353;-86
2023/08/25 09:26:52;;;;;;;41.88;38.15;;;21.20;99.90;;;;;;6123454;23;20022;-86
2023/08/25 09:29:17;;;;;;;42.78;39.17;;;21.20;99.90;;;;;;6123253;23;20398;-86
2023/08/25 09:31:44;;;;;;;43.83;40.03;;;21.10;99.90;;;;;;6099017;23;20021;-86
2023/08/25 09:34:14;;;;;;;45.83;41.70;;;21.10;99.90;;;;;;6098420;23;20020;-87
2023/08/25 09:36:56;;;;;;;44.20;40.42;;;21.10;99.90;;;;;;6098949;23;20089;-87
2023/08/25 09:39:22;;;;;;;46.13;42.08;;;21.10;99.90;;;;;;6123295;23;20069;-86
2023/08/25 09:41:49;;;;;;;45.25;41.33;;;21.10;99.90;;;;;;6123442;23;20014;-86
2023/08/25 09:44:15;;;;;;;44.60;40.60;;;21.10;99.90;;;;;;6099107;23;20006;-86
2023/08/25 09:46:42;;;;;;;43.63;39.72;;;21.10;99.90;;;;;;6098592;23;20451;-86
2023/08/25 09:49:10;;;;;;;44.33;40.40;;;21.20;99.90;;;;;;6098494;23;20013;-87
2023/08/25 09:51:39;;;;;;;43.15;39.35;;;21.20;99.90;;;;;;6098846;23;20010;-86
2023/08/25 09:54:25;;;;;;;44.38;40.22;;;21.20;99.90;;;;;;6098880;23;20014;-87
2023/08/25 09:56:51;;;;;;;46.63;42.53;;;21.20;99.90;;;;;;6098238;23;20093;-86
2023/08/25 09:59:17;;;;;;;47.15;43.03;;;21.20;99.90;;;;;;6123263;23;20041;-86
2023/08/25 10:01:44;;;;;;;43.53;39.75;;;21.30;99.90;;;;;;6122732;23;20014;-86
2023/08/25 10:04:10;;;;;;;43.00;39.33;;;21.30;99.90;;;;;;6098231;23;20351;-86
2023/08/25 10:06:37;;;;;;;44.97;40.88;;;21.30;99.90;;;;;;6122014;23;20017;-87
2023/08/25 10:09:04;;;;;;;46.28;42.13;;;21.30;99.90;;;;;;6122468;23;20450;-86
2023/08/25 10:11:42;;;;;;;44.17;40.38;;;21.30;99.90;;;;;;6098847;23;20038;-87
2023/08/25 10:14:10;;;;;;;47.25;42.85;;;21.30;99.90;;;;;;6099082;23;20349;-84
2023/08/25 10:16:40;;;;;;;45.38;41.38;;;21.30;99.90;;;;;;6097374;23;20033;-87
2023/08/25 10:19:13;;;;;;;50.13;45.63;;;21.40;99.90;;;;;;6122411;23;20041;-88
2023/08/25 10:21:41;;;;;;;45.13;41.20;;;21.60;99.90;;;;;;6124687;23;20329;-88
2023/08/25 10:24:10;;;;;;;47.72;43.33;;;21.90;99.90;;;;;;6123312;23;20339;-87
2023/08/25 10:26:39;;;;;;;42.53;38.92;;;22.20;99.90;;;;;;6123553;23;20018;-87
2023/08/25 10:29:06;;;;;;;44.20;40.38;;;22.30;99.90;;;;;;6122552;23;20037;-87
2023/08/25 10:31:32;;;;;;;45.88;41.70;;;22.20;99.90;;;;;;6123005;23;20020;-87
2023/08/25 10:33:58;;;;;;;41.08;37.55;;;22.10;99.90;;;;;;6122862;23;20022;-87
2023/08/25 10:36:24;;;;;;;46.20;41.85;;;22.10;99.90;;;;;;6099101;23;20018;-87
2023/08/25 10:38:59;;;;;;;42.28;38.40;;;21.90;99.90;;;;;;6098581;23;20013;-88
2023/08/25 10:41:27;;;;;;;41.83;38.05;;;21.90;99.90;;;;;;6098488;23;20054;-87
2023/08/25 10:43:54;;;;;;;44.40;40.45;;;21.80;99.90;;;;;;6123242;23;20011;-87
2023/08/25 10:46:24;;;;;;;42.45;38.75;;;21.80;99.90;;;;;;6125020;23;20033;-87
2023/08/25 10:49:11;;;;;;;45.95;41.65;;;21.70;99.90;;;;;;6100616;23;20021;-87
2023/08/25 10:51:37;;;;;;;45.42;41.28;;;21.70;99.90;;;;;;6100889;23;20018;-88
2023/08/25 10:54:03;;;;;;;45.70;41.60;;;21.70;99.90;;;;;;6107689;23;20028;-87
2023/08/25 10:56:29;;;;;;;44.03;40.03;;;21.80;99.90;;;;;;6117267;23;20041;-87
2023/08/25 10:59:09;;;;;;;43.75;39.80;;;21.80;99.90;;;;;;6114052;23;20021;-87
2023/08/25 11:01:38;;;;;;;44.97;41.03;;;21.80;99.90;;;;;;6098969;23;20060;-84
2023/08/25 11:04:04;;;;;;;43.25;39.45;;;21.80;99.90;;;;;;6100565;23;20021;-84
2023/08/25 11:06:39;;;;;;;48.65;44.08;;;21.70;99.90;;;;;;6125504;23;20022;-86
2023/08/25 11:09:06;;;;;;;51.97;46.60;;;21.70;99.90;;;;;;6099905;23;20013;-86
2023/08/25 11:11:35;;;;;;;43.58;39.58;;;21.60;99.90;;;;;;6124753;23;20014;-87
2023/08/25 11:14:01;;;;;;;46.65;41.85;;;21.50;99.90;;;;;;6124613;23;20553;-85
2023/08/25 11:16:27;;;;;;;22.15;20.17;;;21.40;99.90;;;;;;6124581;23;20126;-86
2023/08/25 11:18:52;;;;;;;23.38;21.23;;;21.50;99.90;;;;;;6099234;23;20009;-84
2023/08/25 11:21:23;;;;;;;28.08;25.38;;;21.50;99.90;;;;;;6100316;23;20140;-84
2023/08/25 11:23:48;;;;;;;25.05;22.75;;;21.50;99.90;;;;;;6100777;23;20010;-84
2023/08/25 11:26:18;;;;;;;29.33;26.65;;;21.50;99.90;;;;;;6124631;23;20476;-84
2023/08/25 11:28:48;;;;;;;21.35;19.45;;;21.50;99.90;;;;;;6123709;23;20073;-84
2023/08/25 11:31:14;;;;;;;21.02;19.15;;;21.60;99.90;;;;;;6100081;23;20287;-85
2023/08/25 11:33:39;;;;;;;16.45;14.85;;;21.70;99.90;;;;;;6100449;23;20017;-84
2023/08/25 11:36:05;;;;;;;18.83;17.23;;;21.70;99.90;;;;;;6100579;23;20276;-84
2023/08/25 11:38:31;;;;;;;21.42;19.40;;;21.80;99.90;;;;;;6122947;23;20010;-84
2023/08/25 11:40:57;;;;;;;24.02;21.83;;;21.80;99.90;;;;;;6100261;23;20049;-84
2023/08/25 11:43:32;;;;;;;26.02;23.73;;;21.90;99.90;;;;;;6124731;23;20390;-84
2023/08/25 11:45:59;;;;;;;32.03;29.02;;;22.00;99.90;;;;;;6126358;23;20068;-83
2023/08/25 11:48:25;;;;;;;36.22;32.83;;;22.00;99.90;;;;;;6124932;23;20014;-83
2023/08/25 11:50:51;;;;;;;41.30;37.33;;;22.10;99.90;;;;;;6125146;23;20013;-82
2023/08/25 11:53:17;;;;;;;44.22;40.10;;;22.20;99.90;;;;;;6101833;23;20410;-84
2023/08/25 11:55:58;;;;;;;45.65;41.47;;;22.20;99.90;;;;;;6124487;23;20014;-83
2023/08/25 11:58:29;;;;;;;39.92;36.50;;;22.30;99.90;;;;;;6124417;23;20383;-82
2023/08/25 12:01:00;;;;;;;42.33;38.40;;;22.30;99.90;;;;;;6101809;23;20069;-82
2023/08/25 12:03:25;;;;;;;38.65;35.28;;;22.20;99.90;;;;;;6124029;23;20010;-81
2023/08/25 12:05:51;;;;;;;39.42;35.83;;;22.20;99.90;;;;;;6125005;23;20092;-82
2023/08/25 12:08:17;;;;;;;35.53;32.38;;;22.40;99.90;;;;;;6100032;23;20014;-82
2023/08/25 12:10:43;;;;;;;37.28;34.17;;;22.60;99.90;;;;;;6126281;23;20057;-86
2023/08/25 12:13:08;;;;;;;37.58;34.28;;;22.90;99.90;;;;;;6099598;23;20024;-84
2023/08/25 12:15:45;;;;;;;34.53;31.63;;;23.10;99.90;;;;;;6124589;23;20014;-84
2023/08/25 12:18:14;;;;;;;36.63;33.38;;;23.30;99.90;;;;;;6099392;23;20041;-85
2023/08/25 12:20:44;;;;;;;35.28;32.35;;;23.30;99.90;;;;;;6124539;23;20097;-84
2023/08/25 12:23:09;;;;;;;29.92;27.52;;;23.10;99.90;;;;;;6099656;23;20010;-86
2023/08/25 12:25:35;;;;;;;22.58;20.48;;;23.00;99.90;;;;;;6104534;23;20076;-82